Time,TemperatureF,DewpointF,PressureIn,WindDirection,WindDirectionDegrees,WindSpeedMPH,WindSpeedGustMPH,Humidity,HourlyPrecipIn,Conditions,Clouds,dailyrainin,SoftwareType,DateUTC
2013-05-17 05:32:00,58.9,56.0,29.91,SSW,209,0.0,1.0,91,0.00,,,0.00,weatherlink.com 1.10,2013-05-17 10:32:00,
2013-05-17 05:47:00,59.1,57.0,29.91,SSW,208,0.0,0.0,91,0.00,,,0.00,weatherlink.com 1.10,2013-05-17 10:47:00,
2013-05-17 06:08:00,59.1,57.0,29.92,ENE,68,1.0,2.0,91,0.00,,,0.00,weatherlink.com 1.10,2013-05-17 11:08:00,
2013-05-17 06:18:00,59.1,57.0,29.92,ENE,68,1.0,2.0,92,0.00,,,0.00,weatherlink.com 1.10,2013-05-17 11:18:00,
2013-05-17 06:33:00,60.3,59.0,29.93,ENE,68,0.0,1.0,94,0.00,,,0.00,weatherlink.com 1.10,2013-05-17 11:33:00,
2013-05-17 06:48:00,61.6,60.0,29.93,ENE,68,2.0,2.0,93,0.00,,,0.00,weatherlink.com 1.10,2013-05-17 11:48:00,
2013-05-17 07:03:00,62.6,59.0,29.93,ENE,77,3.0,4.0,89,0.00,,,0.00,weatherlink.com 1.10,2013-05-17 12:03:00,
2013-05-17 07:18:00,63.4,60.0,29.94,East,83,3.0,5.0,88,0.00,,,0.00,weatherlink.com 1.10,2013-05-17 12:18:00,
2013-05-17 07:33:00,64.6,60.0,29.94,East,79,5.0,7.0,86,0.00,,,0.00,weatherlink.com 1.10,2013-05-17 12:33:00,
2013-05-17 07:48:00,65.7,61.0,29.94,East,79,4.0,6.0,85,0.00,,,0.00,weatherlink.com 1.10,2013-05-17 12:48:00,
2013-05-17 08:03:00,67.3,61.0,29.95,East,99,0.0,3.0,80,0.00,,,0.00,weatherlink.com 1.10,2013-05-17 13:03:00,
2013-05-17 08:18:00,68.7,61.0,29.94,ENE,77,1.0,4.0,75,0.00,,,0.00,weatherlink.com 1.10,2013-05-17 13:18:00,
2013-05-17 08:33:00,69.8,60.0,29.94,East,98,2.0,6.0,72,0.00,,,0.00,weatherlink.com 1.10,2013-05-17 13:33:00,
2013-05-17 08:48:00,70.9,60.0,29.94,ENE,61,2.0,5.0,69,0.00,,,0.00,weatherlink.com 1.10,2013-05-17 13:48:00,
2013-05-17 09:03:00,72.0,60.0,29.94,East,91,5.0,8.0,65,0.00,,,0.00,weatherlink.com 1.10,2013-05-17 14:03:00,
2013-05-17 09:18:00,72.4,60.0,29.93,ENE,75,7.0,9.0,65,0.00,,,0.00,weatherlink.com 1.10,2013-05-17 14:18:00,
2013-05-17 09:33:00,73.7,62.0,29.93,ENE,68,2.0,5.0,67,0.00,,,0.00,weatherlink.com 1.10,2013-05-17 14:33:00,
2013-05-17 09:48:00,72.4,62.0,29.93,ENE,74,4.0,7.0,69,0.00,,,0.00,weatherlink.com 1.10,2013-05-17 14:48:00,
2013-05-17 10:04:00,73.9,62.0,29.93,ENE,63,5.0,8.0,67,0.00,,,0.00,weatherlink.com 1.10,2013-05-17 15:04:00,
2013-05-17 10:18:00,74.9,61.0,29.93,ENE,75,3.0,7.0,63,0.00,,,0.00,weatherlink.com 1.10,2013-05-17 15:18:00,
2013-05-17 10:34:00,76.4,63.0,29.93,ESE,102,2.0,6.0,63,0.00,,,0.00,weatherlink.com 1.10,2013-05-17 15:34:00,
2013-05-17 10:49:00,77.5,62.0,29.93,SW,233,1.0,6.0,59,0.00,,,0.00,weatherlink.com 1.10,2013-05-17 15:49:00,
2013-05-17 11:04:00,77.9,62.0,29.93,East,80,3.0,7.0,58,0.00,,,0.00,weatherlink.com 1.10,2013-05-17 16:04:00,
2013-05-17 11:19:00,77.7,61.0,29.93,East,82,2.0,7.0,57,0.00,,,0.00,weatherlink.com 1.10,2013-05-17 16:19:00,
2013-05-17 11:34:00,76.6,61.0,29.93,East,92,1.0,6.0,59,0.00,,,0.00,weatherlink.com 1.10,2013-05-17 16:34:00,
2013-05-17 11:49:00,76.3,61.0,29.93,ENE,73,5.0,7.0,60,0.00,,,0.00,weatherlink.com 1.10,2013-05-17 16:49:00,
2013-05-17 12:03:00,76.9,61.0,29.93,East,99,2.0,4.0,58,0.00,,,0.00,weatherlink.com 1.10,2013-05-17 17:03:00,
2013-05-17 12:19:00,78.6,60.0,29.92,East,96,4.0,7.0,53,0.00,,,0.00,weatherlink.com 1.10,2013-05-17 17:19:00,
2013-05-17 12:34:00,79.9,58.0,29.92,SW,224,2.0,6.0,48,0.00,,,0.00,weatherlink.com 1.10,2013-05-17 17:34:00,
2013-05-17 12:49:00,79.3,60.0,29.92,SSW,198,4.0,13.0,51,0.00,,,0.00,weatherlink.com 1.10,2013-05-17 17:49:00,
2013-05-17 13:04:00,79.5,59.0,29.91,ESE,113,5.0,13.0,50,0.00,,,0.00,weatherlink.com 1.10,2013-05-17 18:04:00,
2013-05-17 13:19:00,80.2,61.0,29.91,ESE,107,3.0,7.0,53,0.00,,,0.00,weatherlink.com 1.10,2013-05-17 18:19:00,
2013-05-17 13:34:00,80.8,61.0,29.90,East,92,3.0,6.0,51,0.00,,,0.00,weatherlink.com 1.10,2013-05-17 18:34:00,
2013-05-17 13:49:00,80.4,59.0,29.90,SSE,149,4.0,7.0,49,0.00,,,0.00,weatherlink.com 1.10,2013-05-17 18:49:00,
2013-05-17 14:04:00,80.6,60.0,29.90,ENE,76,6.0,9.0,49,0.00,,,0.00,weatherlink.com 1.10,2013-05-17 19:04:00,
2013-05-17 14:19:00,81.2,61.0,29.89,East,79,8.0,9.0,50,0.00,,,0.00,weatherlink.com 1.10,2013-05-17 19:19:00,
2013-05-17 14:34:00,81.5,62.0,29.89,SSE,161,2.0,9.0,51,0.00,,,0.00,weatherlink.com 1.10,2013-05-17 19:34:00,
2013-05-17 14:49:00,80.3,59.0,29.89,East,83,9.0,11.0,49,0.00,,,0.00,weatherlink.com 1.10,2013-05-17 19:49:00,
2013-05-17 15:04:00,81.4,60.0,29.89,East,96,2.0,4.0,49,0.00,,,0.00,weatherlink.com 1.10,2013-05-17 20:04:00,
2013-05-17 15:19:00,79.9,60.0,29.89,East,80,4.0,11.0,51,0.00,,,0.00,weatherlink.com 1.10,2013-05-17 20:19:00,
2013-05-17 15:34:00,79.7,61.0,29.88,ESE,115,3.0,7.0,53,0.00,,,0.00,weatherlink.com 1.10,2013-05-17 20:34:00,
2013-05-17 18:05:00,77.2,67.0,29.88,SSW,208,0.0,0.0,70,0.00,,,0.06,weatherlink.com 1.10,2013-05-17 23:05:00,
2013-05-17 18:20:00,75.4,65.0,29.88,SW,231,3.0,6.0,71,0.00,,,0.06,weatherlink.com 1.10,2013-05-17 23:20:00,
2013-05-17 18:35:00,73.7,66.0,29.88,ESE,106,2.0,7.0,76,0.03,,,0.09,weatherlink.com 1.10,2013-05-17 23:35:00,
2013-05-17 18:50:00,70.7,67.0,29.89,ESE,103,0.0,1.0,87,0.04,,,0.10,weatherlink.com 1.10,2013-05-17 23:50:00,
2013-05-17 19:05:00,70.4,67.0,29.89,ESE,103,0.0,1.0,88,0.04,,,0.10,weatherlink.com 1.10,2013-05-18 00:05:00,
2013-05-17 19:20:00,69.9,67.0,29.89,East,82,2.0,3.0,90,0.04,,,0.10,weatherlink.com 1.10,2013-05-18 00:20:00,
2013-05-17 19:35:00,69.8,67.0,29.90,East,94,3.0,4.0,90,0.01,,,0.10,weatherlink.com 1.10,2013-05-18 00:35:00,
2013-05-17 19:50:00,69.5,67.0,29.90,East,79,0.0,2.0,91,0.00,,,0.10,weatherlink.com 1.10,2013-05-18 00:50:00,
2013-05-17 20:05:00,69.4,67.0,29.90,East,79,1.0,1.0,92,0.00,,,0.10,weatherlink.com 1.10,2013-05-18 01:05:00,
2013-05-17 20:20:00,68.9,67.0,29.90,East,79,2.0,2.0,92,0.00,,,0.10,weatherlink.com 1.10,2013-05-18 01:20:00,
2013-05-17 20:35:00,68.5,67.0,29.91,East,79,2.0,3.0,93,0.00,,,0.10,weatherlink.com 1.10,2013-05-18 01:35:00,
2013-05-17 20:50:00,68.4,66.0,29.91,East,82,2.0,2.0,93,0.00,,,0.10,weatherlink.com 1.10,2013-05-18 01:50:00,
2013-05-17 21:05:00,68.1,66.0,29.92,East,81,2.0,2.0,94,0.00,,,0.10,weatherlink.com 1.10,2013-05-18 02:05:00,
2013-05-17 21:20:00,67.7,66.0,29.92,East,82,1.0,2.0,95,0.00,,,0.10,weatherlink.com 1.10,2013-05-18 02:20:00,
2013-05-17 21:35:00,67.5,66.0,29.92,East,82,0.0,1.0,95,0.00,,,0.10,weatherlink.com 1.10,2013-05-18 02:35:00,
2013-05-17 21:50:00,67.3,66.0,29.93,East,82,0.0,1.0,95,0.00,,,0.10,weatherlink.com 1.10,2013-05-18 02:50:00,
2013-05-17 22:05:00,67.2,66.0,29.93,East,82,1.0,2.0,94,0.00,,,0.10,weatherlink.com 1.10,2013-05-18 03:05:00,
2013-05-17 22:20:00,67.2,66.0,29.93,East,82,2.0,2.0,94,0.00,,,0.10,weatherlink.com 1.10,2013-05-18 03:20:00,
2013-05-17 22:35:00,67.4,66.0,29.93,East,82,0.0,2.0,94,0.00,,,0.10,weatherlink.com 1.10,2013-05-18 03:35:00,
2013-05-17 22:50:00,67.5,66.0,29.93,East,82,2.0,2.0,94,0.00,,,0.10,weatherlink.com 1.10,2013-05-18 03:50:00,
2013-05-17 23:05:00,67.4,66.0,29.93,East,82,1.0,2.0,94,0.00,,,0.10,weatherlink.com 1.10,2013-05-18 04:05:00,
2013-05-17 23:20:00,67.6,66.0,29.93,East,80,1.0,2.0,94,0.00,,,0.10,weatherlink.com 1.10,2013-05-18 04:20:00,
2013-05-17 23:35:00,67.7,66.0,29.93,ENE,75,2.0,2.0,93,0.00,,,0.10,weatherlink.com 1.10,2013-05-18 04:35:00,
2013-05-17 23:50:00,68.0,66.0,29.93,ENE,75,2.0,3.0,93,0.00,,,0.10,weatherlink.com 1.10,2013-05-18 04:50:00,